Station: Wandering  

  Atmospheric Gas Attenuation - ITU Rec 676-11   ----------------- dB/100km -----------------
Date Time Temp RH % AH g/m3 Dew Point Wind Direction Speed kph Gust kph Barometer mB Rainfall Since 9am 24GHz 47GHz 76GHz 122GHz 134GHz 241GHz
08/05 09:30 15.8 69 9.29 10.1 15 30 1013.1 0 21.0 26.4 41.5 109.1 104.9 361.4
08/05 09:20 15.3 71 9.27 10.1 15 20 1013.1 0 20.9 26.5 41.7 109.6 105.3 362.8
08/05 09:10 14.8 72 9.12 9.8 22 30 1013.1 0 20.7 26.4 41.4 108.7 104.0 358.1
08/05 09:00 14.7 75 9.44 10.3 17 28 1013.1 0 21.3 27.0 42.7 112.3 108.4 373.5
08/05 08:50 14.1 76 9.22 9.9 19 24 1013.1 0 20.9 26.8 42.1 110.7 106.3 366.0
08/05 08:40 13.8 78 9.29 10 15 24 1013.1 0 21.1 27.0 42.6 111.9 107.6 370.7
08/05 08:30 13.5 79 9.24 9.9 11 22 1013.1 0 21.0 27.0 42.6 111.8 107.4 369.8
08/05 08:20 12.9 80 9.02 9.5 13 15 1013.1 0 20.5 26.8 42.0 110.2 105.2 362.2
08/05 08:10 12.5 82 9.02 9.5 11 13 1013.1 0 20.6 27.0 42.2 110.8 105.7 364.0
08/05 08:00 12 84 8.95 9.4 13 20 1013.1 0 20.4 27.0 42.2 110.7 105.5 363.0
08/05 07:50 10.8 89 8.8 9.1 9 11 1013.1 0 20.2 27.1 42.2 110.8 105.1 361.4
08/05 07:40 9.2 94 8.4 8.3 7 9 1013.1 0 19.4 26.9 41.3 108.5 101.6 349.2
08/05 07:30 7.3 95 7.51 6.6 7 11 1013.1 0 17.5 26.0 38.5 101.0 91.6 314.0
08/05 07:20 6.5 96 7.2 5.9 6 9 1013.1 0 16.9 25.7 37.6 98.6 88.3 302.1
08/05 07:10 6.3 91 6.74 4.9 7 7 1013.1 0 15.9 25.0 35.8 93.7 82.2 280.7
08/05 07:00 7.8 95 7.76 7.1 6 9 1013.1 0 18.1 26.3 39.3 103.2 94.5 324.1
08/05 06:50 7.3 95 7.51 6.6 6 7 1013.1 0 17.5 26.0 38.5 101.0 91.6 314.0
08/05 06:40 7 95 7.36 6.3 6 6 1013.1 0 17.2 25.8 38.0 99.7 89.9 307.9
08/05 06:30 6.4 94 7.01 5.5 6 7 1013.1 0 16.5 25.4 36.9 96.6 85.8 293.3
08/05 06:20 6.4 90 6.71 4.9 6 7 1013.1 0 15.9 24.9 35.6 93.2 81.7 278.9
08/05 06:10 8.9 89 7.8 7.2 0 0 1013.1 0 18.1 26.0 39.0 102.2 93.7 321.4
08/05 06:00 9.7 91 8.39 8.3 2 6 1013.1 0 19.3 26.8 41.0 107.7 100.8 346.5
08/05 05:50 9.7 88 8.11 7.8 4 6 1013.1 0 18.7 26.3 39.9 104.6 97.0 333.0
08/05 05:40 10.3 87 8.33 8.2 6 7 1013.1 0 19.2 26.5 40.5 106.2 99.2 340.9
08/05 05:30 10.5 87 8.44 8.4 4 7 1013.1 0 19.4 26.6 40.8 107.1 100.5 345.3
08/05 05:20 10.6 87 8.49 8.5 6 7 1013.1 0 19.5 26.7 41.0 107.6 101.0 347.3
08/05 05:10 10.7 87 8.55 8.6 7 7 1013.1 0 19.6 26.7 41.2 108.1 101.7 349.7
08/05 05:00 10.8 87 8.6 8.7 6 9 1013.1 0 19.7 26.8 41.3 108.5 102.3 351.7
08/05 04:50 10.3 86 8.24 8.1 6 7 1013.1 0 19.0 26.3 40.1 105.2 98.0 336.6
08/05 04:40 10.6 86 8.4 8.4 0 0 1013.1 0 19.3 26.5 40.6 106.6 99.8 343.0
08/05 04:30 10.8 84 8.3 8.2 2 6 1013.1 0 19.1 26.3 40.1 105.2 98.2 337.3
08/05 04:20 11 84 8.41 8.4 6 6 1013.1 0 19.3 26.4 40.4 106.1 99.4 341.7
08/05 04:10 11.2 83 8.41 8.4 7 9 1013.1 0 19.3 26.3 40.3 105.9 99.2 340.8
08/05 04:00 11.2 83 8.41 8.4 7 15 1013.1 0 19.3 26.3 40.3 105.9 99.2 340.8
08/05 03:50 11.3 83 8.47 8.5 7 9 1013.1 0 19.4 26.4 40.5 106.4 99.8 343.2
08/05 03:40 11.2 82 8.31 8.2 7 9 1013.1 0 19.1 26.2 39.9 104.8 97.8 336.1
08/05 03:30 11.4 81 8.32 8.3 7 11 1013.1 0 19.1 26.1 39.9 104.6 97.7 335.7
08/05 03:20 11.2 81 8.21 8.1 6 7 1013.1 0 18.9 26.0 39.5 103.7 96.5 331.3
08/05 03:10 11.3 80 8.16 8 6 7 1013.1 0 18.8 25.9 39.3 103.0 95.7 328.6
08/05 03:00 11.3 81 8.26 8.2 6 11 1013.1 0 19.0 26.1 39.7 104.1 97.0 333.3
08/05 02:50 11.4 80 8.21 8.1 7 11 1013.1 0 18.9 26.0 39.4 103.4 96.2 330.5
08/05 02:40 11.2 79 8.01 7.7 6 7 1013.1 0 18.4 25.7 38.7 101.5 93.8 321.9
08/05 02:30 11.3 78 7.96 7.6 7 11 1013.1 0 18.3 25.6 38.4 100.8 93.0 319.2
08/05 02:20 11.3 77 7.86 7.4 9 11 1013.1 0 18.1 25.4 38.0 99.7 91.6 314.5
08/05 02:10 11.4 76 7.8 7.3 7 9 1013.1 0 18.0 25.3 37.7 99.0 90.7 311.3
08/05 02:00 11.3 75 7.65 7 7 11 1013.1 0 17.7 25.1 37.2 97.5 88.9 304.8
08/05 01:50 11.7 73 7.64 7 11 13 1013.1 0 17.6 24.9 37.0 96.9 88.3 302.8
08/05 01:40 11.4 73 7.49 6.7 6 7 1013.1 0 17.3 24.8 36.5 95.6 86.6 297.0
08/05 01:30 11.7 73 7.64 7 4 7 1013.1 0 17.6 24.9 37.0 96.9 88.3 302.8
08/05 01:20 11.7 71 7.43 6.6 6 7 1013.1 0 17.2 24.6 36.1 94.6 85.5 293.2
08/05 01:10 11.8 71 7.47 6.7 2 6 1013.1 0 17.3 24.6 36.2 94.9 85.9 294.6
08/05 01:00 12 72 7.67 7.1 4 7 1013.1 0 17.7 24.9 36.9 96.8 88.3 303.0
08/05 00:50 11.8 71 7.47 6.7 2 6 1013.1 0 17.3 24.6 36.2 94.9 85.9 294.6
08/05 00:40 12.2 70 7.55 6.9 6 7 1013.1 0 17.4 24.7 36.4 95.3 86.5 296.8
08/05 00:30 12.1 70 7.51 6.8 7 11 1013.1 0 17.3 24.6 36.3 95.0 86.1 295.3
08/05 00:20 12.2 70 7.55 6.9 7 9 1013.1 0 17.4 24.7 36.4 95.3 86.5 296.8
08/05 00:10 12.4 69 7.54 6.9 7 7 1013.1 0 17.4 24.6 36.2 95.0 86.2 295.5
08/05 00:00 12.3 69 7.49 6.8 4 7 1013.1 0 17.3 24.5 36.1 94.6 85.7 293.7
07/05 23:50 12.6 68 7.52 6.9 6 7 1013.1 0 17.3 24.5 36.1 94.5 85.7 293.9
07/05 23:40 12.3 69 7.49 6.8 7 7 1013.1 0 17.3 24.5 36.1 94.6 85.7 293.7
07/05 23:30 12.6 67 7.41 6.6 7 11 1013.1 0 17.1 24.3 35.7 93.4 84.3 288.9
07/05 23:20 12.8 67 7.51 6.8 7 7 1013.1 0 17.3 24.4 36.0 94.2 85.4 292.7
07/05 23:10 13.2 66 7.58 7 9 13 1013.1 0 17.4 24.4 36.0 94.4 85.8 294.4
07/05 23:00 12.7 67 7.46 6.7 6 9 1013.1 0 17.2 24.4 35.8 93.8 84.8 290.8
07/05 22:50 12.5 65 7.15 6.1 6 6 1013.1 0 16.6 23.9 34.7 90.8 81.1 277.6
07/05 22:40 12.7 65 7.24 6.3 6 7 1013.1 0 16.7 24.0 34.9 91.5 82.0 281.0
07/05 22:30 12.8 65 7.28 6.4 9 11 1013.1 0 16.8 24.1 35.1 91.8 82.4 282.4
07/05 22:20 12.7 64 7.13 6.1 9 11 1013.1 0 16.5 23.9 34.5 90.4 80.6 276.1
07/05 22:10 13 62 7.03 5.9 11 13 1013.1 0 16.3 23.6 34.0 89.0 79.0 270.6
07/05 22:00 13.2 61 7 5.9 11 17 1013.1 0 16.2 23.5 33.8 88.5 78.5 268.6
07/05 21:50 13.6 60 7.06 6 11 13 1013.1 0 16.3 23.5 33.9 88.6 78.8 269.9
07/05 21:40 13.6 60 7.06 6 13 17 1013.1 0 16.3 23.5 33.9 88.6 78.8 269.9
07/05 21:30 13.6 59 6.94 5.7 13 19 1013.1 0 16.1 23.3 33.4 87.4 77.3 264.6
07/05 21:20 13.7 59 6.99 5.8 9 13 1013.1 0 16.2 23.4 33.6 87.8 77.9 266.5
07/05 21:10 13.7 58 6.87 5.6 9 11 1013.1 0 15.9 23.2 33.1 86.6 76.4 261.3
07/05 21:00 14.1 57 6.92 5.7 11 13 1013.1 0 16.0 23.2 33.1 86.7 76.6 262.1
07/05 20:50 13.9 56 6.71 5.3 9 13 1013.1 0 15.6 22.9 32.4 84.8 74.2 253.7
07/05 20:40 14.5 55 6.84 5.6 13 17 1013.1 0 15.8 23.0 32.7 85.4 75.2 257.4
07/05 20:30 14.4 56 6.92 5.7 7 11 1013.1 0 16.0 23.1 33.0 86.3 76.3 261.1
07/05 20:20 14.5 55 6.84 5.6 9 11 1013.1 0 15.8 23.0 32.7 85.4 75.2 257.4
07/05 20:10 14.4 55 6.8 5.5 9 13 1013.1 0 15.7 22.9 32.6 85.2 74.8 256.0
07/05 20:00 14.5 55 6.84 5.6 9 11 1013.1 0 15.8 23.0 32.7 85.4 75.2 257.4
07/05 19:50 14.7 54 6.8 5.5 9 11 1013.1 0 15.7 22.8 32.5 84.8 74.5 255.0
07/05 19:40 15.1 53 6.84 5.6 9 13 1013.1 0 15.8 22.8 32.4 84.8 74.7 255.5
07/05 19:30 15.2 53 6.88 5.7 9 13 1013.1 0 15.9 22.8 32.5 85.1 75.0 256.8
07/05 19:20 15.3 52 6.79 5.5 7 11 1013.1 0 15.7 22.7 32.2 84.1 73.9 252.7
07/05 19:10 16 51 6.95 5.9 15 17 1013.1 0 16.0 22.7 32.5 84.9 75.1 257.3
07/05 19:00 16 50 6.81 5.6 13 19 1013.1 0 15.7 22.5 32.0 83.6 73.5 251.4
07/05 18:50 16.2 50 6.89 5.8 9 11 1013.1 0 15.8 22.6 32.2 84.1 74.2 254.1
07/05 18:40 16.4 50 6.98 6 13 15 1013.1 0 16.0 22.7 32.4 84.8 75.1 257.3
07/05 18:30 16.4 49 6.84 5.7 11 17 1013.1 0 15.7 22.5 31.9 83.5 73.4 251.4
07/05 18:20 16.9 48 6.9 5.8 13 15 1013.1 0 15.8 22.4 31.9 83.5 73.7 252.3
07/05 18:10 17.2 48 7.03 6.1 15 20 1013.1 0 16.1 22.6 32.3 84.5 75.0 256.8
07/05 18:00 17.3 47 6.92 5.9 13 20 1013.1 0 15.9 22.4 31.9 83.3 73.6 251.9
07/05 17:50 17.5 47 7.01 6.1 11 17 1013.1 0 16.1 22.5 32.1 83.9 74.4 255.0
07/05 17:40 17.7 46 6.94 5.9 15 19 1013.1 0 15.9 22.3 31.8 83.1 73.4 251.5
07/05 17:30 18 45 6.91 5.9 17 24 1013.1 0 15.8 22.2 31.6 82.5 72.8 249.3
07/05 17:20 18.2 44 6.84 5.8 13 17 1013.1 0 15.7 22.0 31.2 81.6 71.8 245.9
07/05 17:10 18.4 43 6.76 5.6 15 19 1013.1 0 15.5 21.9 30.9 80.7 70.7 242.0
07/05 17:00 18.9 42 6.8 5.7 15 20 1013.1 0 15.6 21.8 30.8 80.5 70.7 242.1

Last Refresh: 08-May-2026 11:05:14

Bureau of Meteorology